Date,TemperatureHighF,TemperatureAvgF,TemperatureLowF,DewpointHighF,DewpointAvgF,DewpointLowF,HumidityHigh,HumidityAvg,HumidityLow,PressureMaxIn,PressureMinIn,WindSpeedMaxMPH,WindSpeedAvgMPH,GustSpeedMaxMPH,PrecipitationSumIn
2013-1-1,65.8,48.7,36.6,37.1,32.6,28.3,82,57,27,30.34,30.17,6,0,6,0.00
2013-1-2,69.3,49.6,35.8,33.4,29.6,24.8,74,51,22,30.23,30.11,10,0,10,0.00
2013-1-3,71.8,51.3,34.8,36.3,28.6,22.3,72,46,20,30.27,30.15,10,0,10,0.00
2013-1-4,71.3,52.6,39.5,29.5,24.7,19.4,57,36,16,30.38,30.24,5,0,5,0.00
2013-1-5,70.7,50.7,33.7,39.6,29.3,23.3,73,48,19,30.39,30.25,6,0,6,0.00
2013-1-6,57.0,49.1,42.3,44.8,40.2,32.4,88,72,59,30.29,30.11,12,0,12,0.03
2013-1-7,69.7,50.8,37.9,41.7,36.5,31.7,92,63,26,30.19,30.04,12,0,12,0.01
2013-1-8,47.7,40.0,38.4,34.3,31.0,29.8,76,70,61,30.19,30.11,3,0,3,0.00
2013-1-11,57.2,48.4,37.1,28.7,24.3,20.6,62,40,27,30.28,30.10,19,2,19,0.00
2013-1-12,59.0,43.9,30.3,28.4,24.2,18.2,71,48,23,30.26,30.14,9,0,9,0.00
2013-1-13,57.9,44.5,32.9,26.5,22.2,13.6,63,44,23,30.28,30.13,11,0,11,0.00
2013-1-14,56.4,43.5,29.1,19.0,14.3,9.7,54,32,17,30.43,30.23,9,0,9,0.00
2013-1-15,62.9,45.3,30.6,30.4,22.1,17.0,69,43,20,30.56,30.40,9,0,9,0.00
2013-1-16,72.0,51.2,33.8,33.9,30.6,25.5,74,50,23,30.45,30.22,7,0,7,0.00
2013-1-17,83.0,58.6,38.9,37.9,30.6,24.6,67,39,16,30.26,30.12,5,0,5,0.00
2013-1-18,83.8,61.3,45.8,34.9,28.5,23.5,43,30,16,30.23,30.11,7,0,7,0.00
2013-1-19,82.3,61.7,45.9,32.5,26.0,22.2,42,28,12,30.27,30.13,9,0,9,0.00
2013-1-20,84.5,61.1,42.3,31.0,25.1,19.1,45,27,12,30.22,30.06,6,0,6,0.00
2013-1-21,86.3,60.6,40.0,31.9,26.0,19.1,53,30,12,30.18,30.06,10,0,10,0.00
2013-1-22,81.9,62.2,45.7,34.0,25.6,18.4,36,26,13,30.18,30.06,11,0,11,0.00
2013-1-23,78.0,66.9,55.2,48.1,34.8,26.4,69,31,23,30.22,30.08,10,0,10,0.01
2013-1-24,67.7,58.4,52.6,55.8,52.6,47.4,91,82,64,30.29,30.17,7,0,7,1.02
2013-1-25,65.1,59.9,57.7,58.1,55.9,53.1,92,87,76,30.22,30.02,9,0,9,0.42
2013-1-26,68.3,60.0,55.4,59.4,55.6,51.8,93,86,71,30.08,29.96,10,0,10,0.05
2013-1-27,62.1,54.4,44.1,53.2,47.3,36.5,92,78,57,30.10,30.03,16,1,16,0.05
2013-1-28,63.2,48.8,38.5,41.2,32.8,27.1,84,58,29,30.27,30.10,15,0,15,0.00
2013-1-29,63.4,48.4,36.2,41.4,35.3,29.3,81,62,37,30.33,30.22,10,0,10,0.00
2013-1-30,72.1,53.9,38.2,43.7,39.6,33.9,86,62,33,30.43,30.28,9,0,9,0.00
2013-1-31,80.3,59.4,42.1,46.0,41.3,36.5,82,55,26,30.33,30.15,9,0,9,0.00